sensor_id;sensor_type;location;lat;lon;timestamp;pressure;altitude;pressure_sealevel;temperature;humidity
27425;BME280;15244;49.088;11.886;2023-07-31T00:04:45;95873.97;;;20.18;42.81
27425;BME280;15244;49.088;11.886;2023-07-31T00:09:47;95868.66;;;20.11;42.72
27425;BME280;15244;49.088;11.886;2023-07-31T00:14:49;95874.41;;;20.04;42.67
27425;BME280;15244;49.088;11.886;2023-07-31T00:19:50;95874.63;;;19.97;43.03
27425;BME280;15244;49.088;11.886;2023-07-31T00:24:52;95880.28;;;19.93;42.77
27425;BME280;15244;49.088;11.886;2023-07-31T00:29:54;95883.66;;;19.84;42.88
27425;BME280;15244;49.088;11.886;2023-07-31T00:34:55;95877.91;;;19.79;43.26
27425;BME280;15244;49.088;11.886;2023-07-31T00:39:57;95874.16;;;19.73;43.12
27425;BME280;15244;49.088;11.886;2023-07-31T00:44:58;95873.47;;;19.68;43.35
27425;BME280;15244;49.088;11.886;2023-07-31T00:50:00;95866.91;;;19.62;43.42
27425;BME280;15244;49.088;11.886;2023-07-31T00:55:03;95865.91;;;19.56;43.49
27425;BME280;15244;49.088;11.886;2023-07-31T01:00:05;95858.91;;;19.52;43.42
27425;BME280;15244;49.088;11.886;2023-07-31T01:05:07;95855.03;;;19.49;43.60
27425;BME280;15244;49.088;11.886;2023-07-31T01:15:20;95851.28;;;19.43;43.48
27425;BME280;15244;49.088;11.886;2023-07-31T01:20:26;95847.41;;;19.40;43.66
27425;BME280;15244;49.088;11.886;2023-07-31T01:30:58;95833.00;;;19.33;43.87
27425;BME280;15244;49.088;11.886;2023-07-31T01:36:01;95836.19;;;19.31;43.80
27425;BME280;15244;49.088;11.886;2023-07-31T01:41:03;95844.13;;;19.29;43.83
27425;BME280;15244;49.088;11.886;2023-07-31T01:46:05;95833.53;;;19.27;43.82
27425;BME280;15244;49.088;11.886;2023-07-31T01:51:06;95825.25;;;19.27;44.09
27425;BME280;15244;49.088;11.886;2023-07-31T01:56:08;95830.09;;;19.23;44.10
27425;BME280;15244;49.088;11.886;2023-07-31T02:01:10;95837.72;;;19.19;44.41
27425;BME280;15244;49.088;11.886;2023-07-31T02:06:11;95830.28;;;19.16;44.79
27425;BME280;15244;49.088;11.886;2023-07-31T02:11:13;95825.63;;;19.13;44.76
27425;BME280;15244;49.088;11.886;2023-07-31T02:16:15;95814.69;;;19.10;44.72
27425;BME280;15244;49.088;11.886;2023-07-31T02:21:16;95800.97;;;19.06;44.70
27425;BME280;15244;49.088;11.886;2023-07-31T02:26:18;95811.34;;;19.02;44.94
27425;BME280;15244;49.088;11.886;2023-07-31T02:31:20;95808.66;;;18.98;45.16
27425;BME280;15244;49.088;11.886;2023-07-31T02:36:23;95813.84;;;18.96;44.88
27425;BME280;15244;49.088;11.886;2023-07-31T02:41:25;95792.28;;;18.91;44.95
27425;BME280;15244;49.088;11.886;2023-07-31T02:46:26;95777.34;;;18.89;45.18
27425;BME280;15244;49.088;11.886;2023-07-31T02:51:29;95798.78;;;18.84;45.00
27425;BME280;15244;49.088;11.886;2023-07-31T02:56:30;95790.16;;;18.82;45.08
27425;BME280;15244;49.088;11.886;2023-07-31T03:01:32;95792.59;;;18.80;45.07
27425;BME280;15244;49.088;11.886;2023-07-31T03:06:34;95787.94;;;18.77;45.26
27425;BME280;15244;49.088;11.886;2023-07-31T03:11:36;95793.88;;;18.76;45.29
27425;BME280;15244;49.088;11.886;2023-07-31T03:16:37;95803.78;;;18.73;45.34
27425;BME280;15244;49.088;11.886;2023-07-31T03:21:39;95803.00;;;18.73;45.35
27425;BME280;15244;49.088;11.886;2023-07-31T03:26:41;95799.59;;;18.69;45.49
27425;BME280;15244;49.088;11.886;2023-07-31T03:31:43;95794.50;;;18.67;45.54
27425;BME280;15244;49.088;11.886;2023-07-31T03:36:44;95795.38;;;18.64;45.56
27425;BME280;15244;49.088;11.886;2023-07-31T03:41:46;95799.00;;;18.61;45.67
27425;BME280;15244;49.088;11.886;2023-07-31T03:46:48;95799.06;;;18.57;45.81
27425;BME280;15244;49.088;11.886;2023-07-31T03:51:49;95797.63;;;18.53;45.83
27425;BME280;15244;49.088;11.886;2023-07-31T03:56:51;95796.50;;;18.50;45.78
27425;BME280;15244;49.088;11.886;2023-07-31T04:01:53;95805.66;;;18.47;46.00
27425;BME280;15244;49.088;11.886;2023-07-31T04:06:54;95801.78;;;18.45;45.97
27425;BME280;15244;49.088;11.886;2023-07-31T04:11:56;95796.66;;;18.43;46.05
27425;BME280;15244;49.088;11.886;2023-07-31T04:16:57;95795.13;;;18.42;46.27
27425;BME280;15244;49.088;11.886;2023-07-31T04:21:59;95787.28;;;18.40;46.05
27425;BME280;15244;49.088;11.886;2023-07-31T04:27:00;95780.63;;;18.38;46.21
27425;BME280;15244;49.088;11.886;2023-07-31T04:32:02;95779.09;;;18.37;46.44
27425;BME280;15244;49.088;11.886;2023-07-31T04:37:04;95777.56;;;18.36;46.38
27425;BME280;15244;49.088;11.886;2023-07-31T04:42:06;95775.91;;;18.38;46.53
27425;BME280;15244;49.088;11.886;2023-07-31T04:47:07;95769.16;;;18.39;46.69
27425;BME280;15244;49.088;11.886;2023-07-31T04:52:09;95770.63;;;18.44;46.72
27425;BME280;15244;49.088;11.886;2023-07-31T04:57:10;95772.09;;;18.49;46.89
27425;BME280;15244;49.088;11.886;2023-07-31T05:02:12;95763.72;;;18.52;46.93
27425;BME280;15244;49.088;11.886;2023-07-31T05:07:14;95758.88;;;18.56;47.15
27425;BME280;15244;49.088;11.886;2023-07-31T05:12:16;95768.28;;;18.59;47.25
27425;BME280;15244;49.088;11.886;2023-07-31T05:17:17;95765.00;;;18.64;47.44
27425;BME280;15244;49.088;11.886;2023-07-31T05:22:19;95757.81;;;18.67;47.45
27425;BME280;15244;49.088;11.886;2023-07-31T05:27:20;95755.41;;;18.69;47.72
27425;BME280;15244;49.088;11.886;2023-07-31T05:32:22;95740.25;;;18.73;47.73
27425;BME280;15244;49.088;11.886;2023-07-31T05:37:24;95744.50;;;18.78;47.82
27425;BME280;15244;49.088;11.886;2023-07-31T05:42:25;95741.56;;;18.85;47.98
27425;BME280;15244;49.088;11.886;2023-07-31T05:47:27;95748.09;;;18.91;47.74
27425;BME280;15244;49.088;11.886;2023-07-31T05:52:28;95739.72;;;18.95;47.87
27425;BME280;15244;49.088;11.886;2023-07-31T05:57:30;95734.31;;;19.04;47.85
27425;BME280;15244;49.088;11.886;2023-07-31T06:02:32;95749.25;;;19.07;48.05
27425;BME280;15244;49.088;11.886;2023-07-31T06:07:37;95753.13;;;19.09;47.96
27425;BME280;15244;49.088;11.886;2023-07-31T06:12:39;95758.13;;;19.14;47.89
27425;BME280;15244;49.088;11.886;2023-07-31T06:17:40;95751.94;;;19.23;48.13
27425;BME280;15244;49.088;11.886;2023-07-31T06:22:42;95753.59;;;19.33;48.11
27425;BME280;15244;49.088;11.886;2023-07-31T06:27:44;95757.28;;;19.43;48.09
27425;BME280;15244;49.088;11.886;2023-07-31T06:32:45;95756.59;;;19.52;48.00
27425;BME280;15244;49.088;11.886;2023-07-31T06:37:47;95762.94;;;19.65;47.99
27425;BME280;15244;49.088;11.886;2023-07-31T06:42:49;95748.88;;;19.72;47.91
27425;BME280;15244;49.088;11.886;2023-07-31T06:47:50;95754.97;;;19.80;47.84
27425;BME280;15244;49.088;11.886;2023-07-31T06:52:52;95746.03;;;19.88;47.53
27425;BME280;15244;49.088;11.886;2023-07-31T06:57:55;95732.59;;;20.00;47.41
27425;BME280;15244;49.088;11.886;2023-07-31T07:02:57;95734.25;;;20.10;47.23
27425;BME280;15244;49.088;11.886;2023-07-31T07:07:58;95738.44;;;20.14;47.26
27425;BME280;15244;49.088;11.886;2023-07-31T07:13:00;95740.22;;;20.21;47.26
27425;BME280;15244;49.088;11.886;2023-07-31T07:18:01;95743.06;;;20.30;47.03
27425;BME280;15244;49.088;11.886;2023-07-31T07:23:03;95740.19;;;20.34;47.37
27425;BME280;15244;49.088;11.886;2023-07-31T07:28:04;95740.38;;;20.40;47.03
27425;BME280;15244;49.088;11.886;2023-07-31T07:33:06;95746.44;;;20.47;46.96
27425;BME280;15244;49.088;11.886;2023-07-31T07:38:08;95734.03;;;20.52;46.79
27425;BME280;15244;49.088;11.886;2023-07-31T07:43:09;95738.13;;;20.60;46.86
27425;BME280;15244;49.088;11.886;2023-07-31T07:48:11;95746.19;;;20.67;46.79
27425;BME280;15244;49.088;11.886;2023-07-31T07:53:13;95750.72;;;20.74;46.66
27425;BME280;15244;49.088;11.886;2023-07-31T07:58:15;95752.31;;;20.84;46.82
27425;BME280;15244;49.088;11.886;2023-07-31T08:03:17;95755.63;;;20.92;46.26
27425;BME280;15244;49.088;11.886;2023-07-31T08:08:19;95751.50;;;20.96;46.08
27425;BME280;15244;49.088;11.886;2023-07-31T08:13:21;95768.00;;;21.00;45.79
27425;BME280;15244;49.088;11.886;2023-07-31T08:18:22;95759.66;;;21.00;45.76
27425;BME280;15244;49.088;11.886;2023-07-31T08:23:24;95754.31;;;21.06;45.51
27425;BME280;15244;49.088;11.886;2023-07-31T08:28:26;95750.03;;;21.14;45.83
27425;BME280;15244;49.088;11.886;2023-07-31T08:33:27;95750.69;;;21.18;45.62
27425;BME280;15244;49.088;11.886;2023-07-31T08:38:29;95749.69;;;21.25;45.23
27425;BME280;15244;49.088;11.886;2023-07-31T08:43:32;95748.50;;;21.35;45.58
27425;BME280;15244;49.088;11.886;2023-07-31T08:48:35;95743.16;;;21.40;45.24
27425;BME280;15244;49.088;11.886;2023-07-31T08:53:38;95736.88;;;21.49;45.34
27425;BME280;15244;49.088;11.886;2023-07-31T08:58:40;95730.28;;;21.56;45.21
27425;BME280;15244;49.088;11.886;2023-07-31T09:03:42;95732.31;;;21.64;45.25
27425;BME280;15244;49.088;11.886;2023-07-31T09:08:45;95722.78;;;21.75;45.02
27425;BME280;15244;49.088;11.886;2023-07-31T09:13:48;95706.19;;;21.84;44.20
27425;BME280;15244;49.088;11.886;2023-07-31T09:18:54;95714.22;;;21.91;44.07
27425;BME280;15244;49.088;11.886;2023-07-31T09:23:57;95722.72;;;21.97;44.06
27425;BME280;15244;49.088;11.886;2023-07-31T09:29:00;95712.53;;;21.94;43.51
27425;BME280;15244;49.088;11.886;2023-07-31T09:34:02;95707.44;;;21.92;43.66
27425;BME280;15244;49.088;11.886;2023-07-31T09:39:04;95692.06;;;22.00;43.65
27425;BME280;15244;49.088;11.886;2023-07-31T09:44:06;95687.88;;;22.05;43.51
27425;BME280;15244;49.088;11.886;2023-07-31T09:49:08;95688.34;;;22.13;43.31
27425;BME280;15244;49.088;11.886;2023-07-31T09:54:15;95675.09;;;22.17;43.06
27425;BME280;15244;49.088;11.886;2023-07-31T09:59:19;95668.63;;;22.11;42.93
27425;BME280;15244;49.088;11.886;2023-07-31T10:04:27;95665.53;;;22.18;43.12
27425;BME280;15244;49.088;11.886;2023-07-31T10:09:30;95663.09;;;22.29;43.01
27425;BME280;15244;49.088;11.886;2023-07-31T10:14:33;95667.13;;;22.37;42.57
27425;BME280;15244;49.088;11.886;2023-07-31T10:19:35;95655.84;;;22.50;42.95
27425;BME280;15244;49.088;11.886;2023-07-31T10:24:38;95656.78;;;22.56;42.22
27425;BME280;15244;49.088;11.886;2023-07-31T10:29:41;95643.94;;;22.68;42.75
27425;BME280;15244;49.088;11.886;2023-07-31T10:34:44;95645.31;;;22.72;42.14
27425;BME280;15244;49.088;11.886;2023-07-31T10:45:12;95620.13;;;22.85;41.88
27425;BME280;15244;49.088;11.886;2023-07-31T10:50:19;95634.97;;;22.91;41.67
27425;BME280;15244;49.088;11.886;2023-07-31T11:00:37;95645.44;;;23.06;41.50
27425;BME280;15244;49.088;11.886;2023-07-31T11:16:04;95599.84;;;23.12;40.59
27425;BME280;15244;49.088;11.886;2023-07-31T11:21:06;95589.28;;;23.26;40.81
27425;BME280;15244;49.088;11.886;2023-07-31T11:26:08;95591.09;;;23.38;40.67
27425;BME280;15244;49.088;11.886;2023-07-31T11:31:10;95602.44;;;23.49;40.17
27425;BME280;15244;49.088;11.886;2023-07-31T11:36:20;95585.53;;;23.62;40.25
27425;BME280;15244;49.088;11.886;2023-07-31T11:41:22;95571.56;;;23.71;39.99
27425;BME280;15244;49.088;11.886;2023-07-31T11:46:23;95564.81;;;23.87;39.98
27425;BME280;15244;49.088;11.886;2023-07-31T11:51:25;95551.44;;;24.00;39.56
27425;BME280;15244;49.088;11.886;2023-07-31T11:56:27;95550.78;;;24.06;39.17
27425;BME280;15244;49.088;11.886;2023-07-31T12:01:29;95553.97;;;24.13;39.33
27425;BME280;15244;49.088;11.886;2023-07-31T12:06:33;95543.63;;;24.29;39.13
27425;BME280;15244;49.088;11.886;2023-07-31T12:11:46;95530.06;;;24.36;38.89
27425;BME280;15244;49.088;11.886;2023-07-31T12:16:47;95530.78;;;24.46;39.07
27425;BME280;15244;49.088;11.886;2023-07-31T12:21:49;95523.38;;;24.58;38.87
27425;BME280;15244;49.088;11.886;2023-07-31T12:26:51;95515.19;;;24.69;38.57
27425;BME280;15244;49.088;11.886;2023-07-31T12:31:53;95516.06;;;24.75;38.58
27425;BME280;15244;49.088;11.886;2023-07-31T12:36:55;95518.53;;;24.88;38.34
27425;BME280;15244;49.088;11.886;2023-07-31T12:41:57;95513.72;;;24.88;37.91
27425;BME280;15244;49.088;11.886;2023-07-31T12:46:58;95525.38;;;24.87;37.95
27425;BME280;15244;49.088;11.886;2023-07-31T12:52:00;95497.19;;;24.85;37.97
27425;BME280;15244;49.088;11.886;2023-07-31T12:57:01;95497.50;;;24.87;38.22
27425;BME280;15244;49.088;11.886;2023-07-31T13:02:03;95491.69;;;24.91;37.95
27425;BME280;15244;49.088;11.886;2023-07-31T13:07:05;95481.22;;;24.85;37.94
27425;BME280;15244;49.088;11.886;2023-07-31T13:12:07;95471.88;;;24.88;38.04
27425;BME280;15244;49.088;11.886;2023-07-31T13:17:09;95455.28;;;24.94;37.88
27425;BME280;15244;49.088;11.886;2023-07-31T13:22:10;95448.50;;;25.01;38.21
27425;BME280;15244;49.088;11.886;2023-07-31T13:27:12;95443.97;;;25.03;37.64
27425;BME280;15244;49.088;11.886;2023-07-31T13:32:13;95435.88;;;25.05;37.69
27425;BME280;15244;49.088;11.886;2023-07-31T13:37:15;95428.09;;;25.09;37.51
27425;BME280;15244;49.088;11.886;2023-07-31T13:42:17;95426.53;;;25.08;37.61
27425;BME280;15244;49.088;11.886;2023-07-31T13:47:19;95430.38;;;25.11;37.41
27425;BME280;15244;49.088;11.886;2023-07-31T13:52:20;95411.44;;;25.15;37.47
27425;BME280;15244;49.088;11.886;2023-07-31T13:57:22;95415.44;;;25.14;37.55
27425;BME280;15244;49.088;11.886;2023-07-31T14:02:25;95412.13;;;25.10;37.84
27425;BME280;15244;49.088;11.886;2023-07-31T14:07:26;95408.31;;;25.28;37.80
27425;BME280;15244;49.088;11.886;2023-07-31T14:12:28;95395.34;;;25.45;37.68
27425;BME280;15244;49.088;11.886;2023-07-31T14:17:43;95385.50;;;25.50;37.42
27425;BME280;15244;49.088;11.886;2023-07-31T14:22:45;95399.84;;;25.63;37.29
27425;BME280;15244;49.088;11.886;2023-07-31T14:27:46;95382.16;;;25.72;37.39
27425;BME280;15244;49.088;11.886;2023-07-31T14:32:48;95385.06;;;25.83;37.13
27425;BME280;15244;49.088;11.886;2023-07-31T14:37:49;95386.94;;;25.92;36.71
27425;BME280;15244;49.088;11.886;2023-07-31T14:42:51;95386.19;;;25.91;36.57
27425;BME280;15244;49.088;11.886;2023-07-31T14:47:52;95383.94;;;25.96;36.89
27425;BME280;15244;49.088;11.886;2023-07-31T14:52:54;95381.25;;;26.07;36.56
27425;BME280;15244;49.088;11.886;2023-07-31T14:57:56;95386.88;;;26.12;36.44
27425;BME280;15244;49.088;11.886;2023-07-31T15:02:57;95378.88;;;26.26;36.55
27425;BME280;15244;49.088;11.886;2023-07-31T15:07:59;95372.09;;;26.38;36.55
27425;BME280;15244;49.088;11.886;2023-07-31T15:13:01;95369.38;;;26.49;36.19
27425;BME280;15244;49.088;11.886;2023-07-31T15:18:03;95359.53;;;26.54;36.25
27425;BME280;15244;49.088;11.886;2023-07-31T15:23:04;95354.00;;;26.65;36.55
27425;BME280;15244;49.088;11.886;2023-07-31T15:28:06;95351.47;;;26.67;36.08
27425;BME280;15244;49.088;11.886;2023-07-31T15:33:08;95349.94;;;26.66;35.52
27425;BME280;15244;49.088;11.886;2023-07-31T15:38:10;95351.41;;;26.56;35.21
27425;BME280;15244;49.088;11.886;2023-07-31T15:43:11;95353.88;;;26.48;35.35
27425;BME280;15244;49.088;11.886;2023-07-31T15:48:13;95345.19;;;26.41;35.87
27425;BME280;15244;49.088;11.886;2023-07-31T15:53:15;95333.97;;;26.35;35.73
27425;BME280;15244;49.088;11.886;2023-07-31T15:58:16;95324.28;;;26.30;35.76
27425;BME280;15244;49.088;11.886;2023-07-31T16:03:18;95324.75;;;26.23;35.58
27425;BME280;15244;49.088;11.886;2023-07-31T16:08:21;95325.41;;;26.12;35.61
27425;BME280;15244;49.088;11.886;2023-07-31T16:13:22;95327.84;;;25.99;35.88
27425;BME280;15244;49.088;11.886;2023-07-31T16:18:25;95331.59;;;25.90;35.99
27425;BME280;15244;49.088;11.886;2023-07-31T16:23:26;95318.38;;;25.85;36.09
27425;BME280;15244;49.088;11.886;2023-07-31T16:28:28;95316.50;;;25.82;36.45
27425;BME280;15244;49.088;11.886;2023-07-31T16:33:30;95317.56;;;25.85;36.50
27425;BME280;15244;49.088;11.886;2023-07-31T16:38:32;95319.06;;;25.80;36.44
27425;BME280;15244;49.088;11.886;2023-07-31T16:43:34;95308.38;;;25.79;36.64
27425;BME280;15244;49.088;11.886;2023-07-31T16:48:35;95305.28;;;25.77;36.50
27425;BME280;15244;49.088;11.886;2023-07-31T16:53:37;95307.53;;;25.72;36.77
27425;BME280;15244;49.088;11.886;2023-07-31T16:58:39;95299.38;;;25.69;36.75
27425;BME280;15244;49.088;11.886;2023-07-31T17:03:41;95299.38;;;25.69;36.79
27425;BME280;15244;49.088;11.886;2023-07-31T17:08:43;95299.34;;;25.63;36.94
27425;BME280;15244;49.088;11.886;2023-07-31T17:13:44;95293.72;;;25.58;36.68
27425;BME280;15244;49.088;11.886;2023-07-31T17:18:46;95291.66;;;25.52;36.75
27425;BME280;15244;49.088;11.886;2023-07-31T17:23:48;95295.41;;;25.49;36.56
27425;BME280;15244;49.088;11.886;2023-07-31T17:28:50;95274.06;;;25.46;36.45
27425;BME280;15244;49.088;11.886;2023-07-31T17:33:52;95267.44;;;25.44;36.91
27425;BME280;15244;49.088;11.886;2023-07-31T17:38:54;95274.81;;;25.47;36.69
27425;BME280;15244;49.088;11.886;2023-07-31T17:43:55;95268.28;;;25.50;36.79
27425;BME280;15244;49.088;11.886;2023-07-31T17:48:57;95268.09;;;25.59;37.26
27425;BME280;15244;49.088;11.886;2023-07-31T17:54:00;95265.13;;;25.68;37.09
27425;BME280;15244;49.088;11.886;2023-07-31T17:59:02;95266.94;;;25.71;37.44
27425;BME280;15244;49.088;11.886;2023-07-31T18:04:04;95275.31;;;25.71;37.03
27425;BME280;15244;49.088;11.886;2023-07-31T18:09:08;95276.31;;;25.68;37.22
27425;BME280;15244;49.088;11.886;2023-07-31T18:14:11;95268.63;;;25.63;37.55
27425;BME280;15244;49.088;11.886;2023-07-31T18:19:13;95266.28;;;25.56;37.74
27425;BME280;15244;49.088;11.886;2023-07-31T18:24:14;95272.53;;;25.45;37.56
27425;BME280;15244;49.088;11.886;2023-07-31T18:29:16;95279.53;;;25.35;37.64
27425;BME280;15244;49.088;11.886;2023-07-31T18:34:18;95262.97;;;25.26;37.77
27425;BME280;15244;49.088;11.886;2023-07-31T18:39:20;95251.66;;;25.15;38.13
27425;BME280;15244;49.088;11.886;2023-07-31T18:44:21;95255.66;;;25.08;38.05
27425;BME280;15244;49.088;11.886;2023-07-31T18:49:23;95266.47;;;25.00;38.27
27425;BME280;15244;49.088;11.886;2023-07-31T18:54:25;95269.41;;;24.91;38.18
27425;BME280;15244;49.088;11.886;2023-07-31T18:59:26;95257.09;;;24.77;38.25
27425;BME280;15244;49.088;11.886;2023-07-31T19:04:28;95249.13;;;24.70;38.50
27425;BME280;15244;49.088;11.886;2023-07-31T19:09:34;95253.66;;;24.68;38.54
27425;BME280;15244;49.088;11.886;2023-07-31T19:14:36;95251.09;;;24.64;38.41
27425;BME280;15244;49.088;11.886;2023-07-31T19:19:38;95264.00;;;24.61;38.83
27425;BME280;15244;49.088;11.886;2023-07-31T19:24:40;95260.63;;;24.57;38.87
27425;BME280;15244;49.088;11.886;2023-07-31T19:29:45;95242.31;;;24.51;38.81
27425;BME280;15244;49.088;11.886;2023-07-31T19:34:47;95248.75;;;24.42;39.09
27425;BME280;15244;49.088;11.886;2023-07-31T19:39:48;95260.59;;;24.37;39.27
27425;BME280;15244;49.088;11.886;2023-07-31T19:44:50;95261.56;;;24.34;39.38
27425;BME280;15244;49.088;11.886;2023-07-31T19:49:51;95247.06;;;24.30;39.42
27425;BME280;15244;49.088;11.886;2023-07-31T19:54:53;95243.16;;;24.21;39.32
27425;BME280;15244;49.088;11.886;2023-07-31T19:59:55;95241.63;;;24.20;39.64
27425;BME280;15244;49.088;11.886;2023-07-31T20:04:56;95230.41;;;24.15;39.73
27425;BME280;15244;49.088;11.886;2023-07-31T20:09:58;95223.78;;;24.12;39.70
27425;BME280;15244;49.088;11.886;2023-07-31T20:15:00;95218.44;;;24.09;39.77
27425;BME280;15244;49.088;11.886;2023-07-31T20:20:02;95226.22;;;24.05;40.10
27425;BME280;15244;49.088;11.886;2023-07-31T20:25:04;95206.38;;;23.97;40.55
27425;BME280;15244;49.088;11.886;2023-07-31T20:30:06;95196.69;;;23.92;40.68
27425;BME280;15244;49.088;11.886;2023-07-31T20:35:08;95195.63;;;23.90;40.83
27425;BME280;15244;49.088;11.886;2023-07-31T20:40:11;95197.66;;;23.89;40.84
27425;BME280;15244;49.088;11.886;2023-07-31T20:45:12;95195.38;;;23.88;41.14
27425;BME280;15244;49.088;11.886;2023-07-31T20:50:15;95184.91;;;23.83;40.53
27425;BME280;15244;49.088;11.886;2023-07-31T20:55:17;95187.13;;;23.78;40.99
27425;BME280;15244;49.088;11.886;2023-07-31T21:00:18;95178.97;;;23.75;41.00
27425;BME280;15244;49.088;11.886;2023-07-31T21:05:20;95183.66;;;23.69;41.01
27425;BME280;15244;49.088;11.886;2023-07-31T21:10:22;95182.31;;;23.64;41.23
27425;BME280;15244;49.088;11.886;2023-07-31T21:15:24;95178.19;;;23.59;41.41
27425;BME280;15244;49.088;11.886;2023-07-31T21:20:27;95165.56;;;23.58;41.66
27425;BME280;15244;49.088;11.886;2023-07-31T21:25:32;95156.16;;;23.56;41.60
27425;BME280;15244;49.088;11.886;2023-07-31T21:30:34;95163.75;;;23.55;41.66
27425;BME280;15244;49.088;11.886;2023-07-31T21:35:35;95167.19;;;23.50;42.09
27425;BME280;15244;49.088;11.886;2023-07-31T21:40:37;95166.16;;;23.48;42.21
27425;BME280;15244;49.088;11.886;2023-07-31T21:45:39;95156.94;;;23.42;42.65
27425;BME280;15244;49.088;11.886;2023-07-31T21:50:41;95151.59;;;23.38;42.68
27425;BME280;15244;49.088;11.886;2023-07-31T21:55:42;95151.28;;;23.36;43.15
27425;BME280;15244;49.088;11.886;2023-07-31T22:00:44;95147.75;;;23.35;43.18
27425;BME280;15244;49.088;11.886;2023-07-31T22:05:46;95139.59;;;23.32;43.50
27425;BME280;15244;49.088;11.886;2023-07-31T22:10:47;95132.72;;;23.27;43.82
27425;BME280;15244;49.088;11.886;2023-07-31T22:15:49;95113.34;;;23.18;44.12
27425;BME280;15244;49.088;11.886;2023-07-31T22:20:51;95111.25;;;23.13;44.03
27425;BME280;15244;49.088;11.886;2023-07-31T22:25:53;95106.81;;;23.06;44.60
27425;BME280;15244;49.088;11.886;2023-07-31T22:30:54;95105.00;;;23.03;44.92
27425;BME280;15244;49.088;11.886;2023-07-31T22:35:56;95108.16;;;22.96;44.92
27425;BME280;15244;49.088;11.886;2023-07-31T22:40:57;95100.88;;;22.84;45.29
27425;BME280;15244;49.088;11.886;2023-07-31T22:45:59;95090.63;;;22.75;45.73
27425;BME280;15244;49.088;11.886;2023-07-31T22:51:01;95084.00;;;22.72;45.86
27425;BME280;15244;49.088;11.886;2023-07-31T22:56:03;95081.16;;;22.67;46.14
27425;BME280;15244;49.088;11.886;2023-07-31T23:01:07;95073.47;;;22.62;46.42
27425;BME280;15244;49.088;11.886;2023-07-31T23:06:09;95060.06;;;22.60;46.81
27425;BME280;15244;49.088;11.886;2023-07-31T23:11:10;95055.00;;;22.59;46.74
27425;BME280;15244;49.088;11.886;2023-07-31T23:16:12;95045.78;;;22.53;47.07
27425;BME280;15244;49.088;11.886;2023-07-31T23:21:13;95045.22;;;22.48;47.06
27425;BME280;15244;49.088;11.886;2023-07-31T23:26:15;95036.78;;;22.43;47.48
27425;BME280;15244;49.088;11.886;2023-07-31T23:31:17;95023.09;;;22.39;47.81
27425;BME280;15244;49.088;11.886;2023-07-31T23:36:18;95027.88;;;22.39;48.01
27425;BME280;15244;49.088;11.886;2023-07-31T23:41:20;95013.72;;;22.37;47.94
27425;BME280;15244;49.088;11.886;2023-07-31T23:46:21;95014.66;;;22.34;47.99
27425;BME280;15244;49.088;11.886;2023-07-31T23:51:23;94994.94;;;22.32;47.97
27425;BME280;15244;49.088;11.886;2023-07-31T23:56:25;94969.66;;;22.29;48.31
